Time;durP1;ratioP1;P1;durP2;ratioP2;P2;SDS_P1;SDS_P2;PMS_P1;PMS_P2;Temp;Humidity;BMP_temperature;BMP_pressure;BME280_temperature;BME280_humidity;BME280_pressure;Samples;Min_cycle;Max_cycle;Signal;HPM_P1;HPM_P2
2024/04/03 00:00:45;;;;;;;0.30;0.20;;;;;;;12.37;91.25;99624.41;4958005;28;20222;-52
2024/04/03 00:03:11;;;;;;;0.30;0.20;;;;;;;12.37;91.99;99614.63;4991561;28;20226;-52
2024/04/03 00:05:37;;;;;;;0.30;0.20;;;;;;;12.34;91.83;99611.25;4995761;28;20465;-52
2024/04/03 00:08:06;;;;;;;0.30;0.20;;;;;;;12.38;91.91;99613.69;4995080;28;20538;-52
2024/04/03 00:10:32;;;;;;;0.30;0.20;;;;;;;12.31;91.82;99612.22;4995302;28;20465;-51
2024/04/03 00:12:58;;;;;;;0.30;0.20;;;;;;;12.26;91.96;99602.72;4989256;28;20467;-52
2024/04/03 00:15:24;;;;;;;0.30;0.20;;;;;;;12.31;91.84;99606.91;4975383;28;20222;-52
2024/04/03 00:17:56;;;;;;;0.30;0.20;;;;;;;12.29;92.31;99610.56;4994921;28;20485;-52
2024/04/03 00:20:23;;;;;;;0.30;0.20;;;;;;;12.25;93.01;99601.88;4994871;28;21007;-51
2024/04/03 00:22:49;;;;;;;0.30;0.20;;;;;;;12.27;92.85;99602.66;4995043;28;20461;-51
2024/04/03 00:25:14;;;;;;;0.30;0.20;;;;;;;12.31;92.99;99603.38;4994913;28;20560;-52
2024/04/03 00:27:40;;;;;;;0.30;0.20;;;;;;;12.25;93.22;99595.69;4994935;28;20577;-52
2024/04/03 00:30:07;;;;;;;0.30;0.20;;;;;;;12.29;93.46;99590.13;4995002;28;20570;-52
2024/04/03 00:32:34;;;;;;;0.30;0.20;;;;;;;12.20;93.98;99593.22;4994726;28;20210;-52
2024/04/03 00:34:59;;;;;;;0.30;0.20;;;;;;;12.20;95.08;99592.34;4994613;28;20465;-50
2024/04/03 00:37:25;;;;;;;0.30;0.20;;;;;;;12.24;95.66;99588.63;4994591;28;20592;-52
2024/04/03 00:39:54;;;;;;;0.30;0.20;;;;;;;12.31;94.20;99584.72;4975082;28;20297;-51
2024/04/03 00:42:20;;;;;;;0.30;0.20;;;;;;;12.29;94.37;99578.59;4992576;28;20218;-52
2024/04/03 00:44:47;;;;;;;0.30;0.20;;;;;;;12.26;92.57;99584.06;4994994;28;20552;-52
2024/04/03 00:47:14;;;;;;;0.30;0.20;;;;;;;12.19;94.08;99580.81;4994113;28;20707;-51
2024/04/03 00:49:43;;;;;;;0.30;0.20;;;;;;;12.25;93.69;99579.69;4994800;28;20466;-52
2024/04/03 00:52:11;;;;;;;0.30;0.20;;;;;;;12.27;93.88;99569.81;4994697;28;20469;-52
2024/04/03 00:54:36;;;;;;;0.30;0.20;;;;;;;12.13;94.46;99559.81;4994591;28;20461;-52
2024/04/03 00:57:02;;;;;;;0.30;0.20;;;;;;;12.32;93.37;99571.31;4994338;28;20552;-52
2024/04/03 00:59:28;;;;;;;0.30;0.20;;;;;;;12.30;92.07;99559.88;4986232;28;20323;-52
2024/04/03 01:01:54;;;;;;;0.30;0.20;;;;;;;12.21;91.47;99548.81;4980561;28;20229;-51
2024/04/03 01:04:19;;;;;;;0.30;0.20;;;;;;;12.13;92.06;99549.16;4994451;28;20472;-52
2024/04/03 01:06:45;;;;;;;0.30;0.20;;;;;;;12.14;91.62;99543.75;4994088;28;20719;-51
2024/04/03 01:09:10;;;;;;;0.30;0.20;;;;;;;12.13;92.12;99539.34;4994238;28;20270;-52
2024/04/03 01:11:36;;;;;;;0.30;0.20;;;;;;;12.15;92.19;99536.63;4994199;28;20241;-52
2024/04/03 01:14:02;;;;;;;0.30;0.20;;;;;;;12.18;93.01;99524.94;4992942;28;20297;-52
2024/04/03 01:16:27;;;;;;;0.30;0.20;;;;;;;12.21;93.02;99527.50;4993954;28;20250;-52
2024/04/03 01:18:53;;;;;;;0.30;0.20;;;;;;;12.18;92.54;99517.81;4994148;28;20261;-52
2024/04/03 01:21:18;;;;;;;0.30;0.20;;;;;;;12.09;92.18;99527.13;4993837;28;20719;-52
2024/04/03 01:23:43;;;;;;;0.30;0.20;;;;;;;12.02;94.30;99527.47;4994152;28;20222;-52
2024/04/03 01:26:09;;;;;;;0.30;0.20;;;;;;;12.02;94.17;99515.00;4993553;28;20260;-52
2024/04/03 01:28:34;;;;;;;0.30;0.20;;;;;;;11.94;94.45;99516.31;4993981;28;20300;-52
2024/04/03 01:31:00;;;;;;;0.30;0.20;;;;;;;11.90;95.37;99512.91;4993928;28;20218;-50
2024/04/03 01:33:26;;;;;;;0.30;0.20;;;;;;;11.82;96.35;99515.97;4993541;28;20219;-51
2024/04/03 01:35:51;;;;;;;0.30;0.20;;;;;;;11.76;96.22;99518.84;4993647;28;20242;-51
2024/04/03 01:38:17;;;;;;;0.30;0.20;;;;;;;11.80;96.33;99508.97;4986766;28;20310;-50
2024/04/03 01:40:42;;;;;;;0.30;0.20;;;;;;;11.73;95.97;99515.47;4978684;28;20707;-50
2024/04/03 01:43:08;;;;;;;0.30;0.20;;;;;;;11.77;96.49;99511.72;4993671;28;20306;-51
2024/04/03 01:45:33;;;;;;;0.30;0.20;;;;;;;11.56;97.32;99510.91;4993318;28;20277;-51
2024/04/03 01:47:59;;;;;;;0.30;0.20;;;;;;;11.43;98.14;99510.59;4993653;28;20292;-50
2024/04/03 01:50:38;;;;;;;0.30;0.20;;;;;;;11.20;99.12;99513.41;4993417;28;20229;-50
2024/04/03 01:53:04;;;;;;;0.30;0.20;;;;;;;11.31;98.94;99511.16;4993533;28;20214;-51
2024/04/03 01:55:30;;;;;;;0.30;0.20;;;;;;;11.39;98.93;99502.84;4993267;28;20469;-51
2024/04/03 01:57:56;;;;;;;0.30;0.20;;;;;;;11.31;98.30;99502.31;4993243;28;20486;-51
2024/04/03 02:00:22;;;;;;;0.30;0.20;;;;;;;11.38;98.08;99501.97;4977950;28;20494;-51
2024/04/03 02:02:47;;;;;;;0.30;0.20;;;;;;;11.48;97.22;99502.41;4986598;28;20218;-51
2024/04/03 02:05:13;;;;;;;0.30;0.20;;;;;;;11.52;96.53;99502.22;4993096;28;20222;-51
2024/04/03 02:07:38;;;;;;;0.30;0.20;;;;;;;11.45;97.32;99495.44;4992850;28;20610;-51
2024/04/03 02:10:04;;;;;;;0.30;0.20;;;;;;;11.62;96.60;99491.13;4980014;28;20268;-51
2024/04/03 02:12:30;;;;;;;0.30;0.20;;;;;;;11.52;97.11;99494.22;4993168;28;20222;-51
2024/04/03 02:14:55;;;;;;;0.30;0.20;;;;;;;11.47;97.51;99488.22;4992934;28;20831;-51
2024/04/03 02:17:21;;;;;;;0.30;0.20;;;;;;;11.53;96.99;99487.97;4992989;28;20248;-51
2024/04/03 02:19:46;;;;;;;0.30;0.20;;;;;;;11.40;96.11;99478.81;4992590;28;20321;-50
2024/04/03 02:22:12;;;;;;;0.30;0.20;;;;;;;11.46;96.76;99477.66;4993059;28;20226;-51
2024/04/03 02:24:37;;;;;;;0.30;0.20;;;;;;;11.42;97.03;99479.59;4992478;28;20683;-51
2024/04/03 02:27:03;;;;;;;0.30;0.20;;;;;;;11.49;96.33;99474.84;4992470;28;20249;-51
2024/04/03 02:29:29;;;;;;;0.30;0.20;;;;;;;11.42;95.83;99471.63;4992603;28;20229;-51
2024/04/03 02:31:55;;;;;;;0.30;0.20;;;;;;;11.47;96.27;99474.94;4992715;28;20963;-51
2024/04/03 02:34:20;;;;;;;0.30;0.20;;;;;;;11.41;96.55;99464.56;4992630;28;20734;-52
2024/04/03 02:36:46;;;;;;;0.30;0.20;;;;;;;11.50;96.92;99474.78;4992123;28;20246;-50
2024/04/03 02:39:11;;;;;;;0.30;0.20;;;;;;;11.46;96.71;99482.97;4978532;28;20227;-51
2024/04/03 02:41:37;;;;;;;0.30;0.20;;;;;;;11.48;97.28;99476.66;4985113;28;20238;-51
2024/04/03 02:44:02;;;;;;;0.30;0.20;;;;;;;11.39;97.34;99471.78;4992383;28;20280;-51
2024/04/03 02:46:28;;;;;;;0.30;0.20;;;;;;;11.51;97.87;99471.22;4992222;28;20230;-51
2024/04/03 02:48:54;;;;;;;0.30;0.20;;;;;;;11.40;98.40;99469.97;4992313;28;20214;-51
2024/04/03 02:51:20;;;;;;;0.30;0.20;;;;;;;11.49;96.89;99472.19;4992576;28;20488;-51
2024/04/03 02:53:46;;;;;;;0.40;0.30;;;;;;;11.51;98.23;99471.22;4992012;28;20564;-51
2024/04/03 02:56:11;;;;;;;0.30;0.20;;;;;;;11.54;98.25;99464.88;4992436;28;20511;-51
2024/04/03 02:58:37;;;;;;;0.30;0.20;;;;;;;11.46;99.04;99467.88;4991074;28;20429;-50
2024/04/03 03:01:07;;;;;;;0.30;0.20;;;;;;;11.48;99.12;99474.00;4972764;28;20239;-52
2024/04/03 03:03:33;;;;;;;0.30;0.20;;;;;;;11.53;99.44;99463.16;4991526;28;20296;-51
2024/04/03 03:06:00;;;;;;;0.30;0.20;;;;;;;11.50;98.87;99457.94;4992183;28;21046;-51
2024/04/03 03:08:28;;;;;;;0.30;0.20;;;;;;;11.60;99.26;99466.38;4986279;28;20226;-51
2024/04/03 03:10:54;;;;;;;0.30;0.20;;;;;;;11.43;99.55;99468.03;4985463;28;20488;-51
2024/04/03 03:13:20;;;;;;;0.30;0.20;;;;;;;11.40;100.00;99462.84;4966394;28;20462;-51
2024/04/03 03:15:57;;;;;;;0.40;0.40;;;;;;;11.42;100.00;99457.47;4991935;28;20568;-51
2024/04/03 03:18:25;;;;;;;0.30;0.20;;;;;;;11.50;99.76;99447.31;4975783;28;20481;-51
2024/04/03 03:20:51;;;;;;;0.30;0.20;;;;;;;11.54;99.40;99438.28;4991914;28;20493;-52
2024/04/03 03:23:17;;;;;;;0.30;0.20;;;;;;;11.65;98.53;99440.41;4992030;28;20468;-51
2024/04/03 03:25:45;;;;;;;0.30;0.20;;;;;;;11.60;99.00;99439.78;4991436;28;20955;-51
2024/04/03 03:28:11;;;;;;;0.30;0.20;;;;;;;11.49;98.47;99435.78;4991902;28;20481;-51
2024/04/03 03:30:37;;;;;;;0.30;0.20;;;;;;;11.39;100.00;99428.34;4991627;28;20453;-51
2024/04/03 03:33:03;;;;;;;0.30;0.20;;;;;;;11.35;100.00;99422.25;4992026;28;20501;-51
2024/04/03 03:35:29;;;;;;;0.30;0.20;;;;;;;11.37;100.00;99414.22;4992725;28;20214;-51
2024/04/03 03:37:55;;;;;;;0.30;0.20;;;;;;;11.34;99.06;99417.88;4994128;28;20541;-51
2024/04/03 03:40:20;;;;;;;0.30;0.20;;;;;;;11.34;99.46;99404.56;4980282;28;20234;-51
2024/04/03 03:42:46;;;;;;;0.30;0.20;;;;;;;11.35;97.86;99403.63;4998353;28;20304;-51
2024/04/03 03:45:19;;;;;;;0.30;0.20;;;;;;;11.52;98.70;99405.53;4998158;28;20222;-51
2024/04/03 03:47:46;;;;;;;0.30;0.20;;;;;;;11.50;98.28;99402.06;4997854;28;20489;-51
2024/04/03 03:52:56;;;;;;;0.30;0.20;;;;;;;11.51;98.57;99403.78;4998417;28;20465;-49
2024/04/03 03:55:22;;;;;;;0.30;0.20;;;;;;;11.63;97.97;99400.56;4997991;28;20552;-49
2024/04/03 03:57:47;;;;;;;0.30;0.20;;;;;;;11.30;96.39;99384.38;4998000;28;20246;-50
2024/04/03 04:00:13;;;;;;;0.30;0.20;;;;;;;11.35;97.80;99397.47;4983996;28;20608;-49
2024/04/03 04:02:39;;;;;;;0.30;0.20;;;;;;;11.40;96.77;99383.03;4990138;28;20585;-50
2024/04/03 04:05:04;;;;;;;0.30;0.20;;;;;;;11.26;97.07;99385.47;4997923;28;20222;-49
2024/04/03 04:07:32;;;;;;;0.30;0.20;;;;;;;11.32;96.79;99394.94;4997922;28;20322;-49
2024/04/03 04:09:58;;;;;;;0.30;0.20;;;;;;;11.20;97.90;99399.88;4984962;28;20400;-49
2024/04/03 04:12:23;;;;;;;0.30;0.20;;;;;;;11.26;98.82;99396.97;4998462;28;20466;-49
2024/04/03 04:14:51;;;;;;;0.30;0.20;;;;;;;11.44;97.61;99394.38;4997944;28;20308;-49
2024/04/03 04:17:18;;;;;;;0.30;0.20;;;;;;;11.44;97.21;99392.59;4998095;28;20238;-48
2024/04/03 04:19:44;;;;;;;0.30;0.20;;;;;;;11.21;96.82;99392.78;4997569;28;20468;-48
2024/04/03 04:22:10;;;;;;;0.30;0.20;;;;;;;11.10;97.82;99389.72;4997889;28;20523;-49
2024/04/03 04:24:36;;;;;;;0.30;0.20;;;;;;;11.16;97.51;99386.81;4997883;28;20465;-49
2024/04/03 04:27:07;;;;;;;0.30;0.20;;;;;;;10.97;97.64;99392.09;4997881;28;20246;-49
2024/04/03 04:29:37;;;;;;;0.30;0.20;;;;;;;10.81;98.81;99389.22;4997970;28;20457;-49
2024/04/03 04:32:06;;;;;;;0.30;0.20;;;;;;;10.91;98.46;99390.56;4997591;28;20443;-49
2024/04/03 04:34:32;;;;;;;0.30;0.20;;;;;;;10.99;98.69;99387.56;4997558;28;20485;-49
2024/04/03 04:36:58;;;;;;;0.30;0.20;;;;;;;10.94;98.81;99393.06;4997190;28;20497;-49
2024/04/03 04:39:23;;;;;;;0.30;0.20;;;;;;;10.77;100.00;99389.44;4982175;28;20471;-49
2024/04/03 04:41:49;;;;;;;0.30;0.20;;;;;;;10.86;100.00;99378.41;4992227;28;20248;-49
2024/04/03 04:44:16;;;;;;;0.30;0.20;;;;;;;10.80;100.00;99386.66;4997833;28;20225;-49
2024/04/03 04:46:42;;;;;;;0.30;0.20;;;;;;;10.66;100.00;99380.13;4996975;28;20504;-49
2024/04/03 04:49:07;;;;;;;0.30;0.20;;;;;;;10.90;100.00;99387.97;4994677;28;20950;-49
2024/04/03 04:51:33;;;;;;;0.30;0.20;;;;;;;11.24;100.00;99385.53;4994098;28;20218;-49
2024/04/03 04:53:58;;;;;;;0.30;0.20;;;;;;;11.08;99.24;99386.28;4994564;28;20261;-49
2024/04/03 04:56:24;;;;;;;0.30;0.20;;;;;;;10.98;100.00;99394.69;4994188;28;20234;-49
2024/04/03 04:58:50;;;;;;;0.30;0.20;;;;;;;10.92;100.00;99405.56;4991593;28;20710;-49
2024/04/03 05:01:16;;;;;;;0.30;0.20;;;;;;;10.97;100.00;99400.06;4975175;28;20227;-49
2024/04/03 05:03:42;;;;;;;0.30;0.20;;;;;;;10.89;100.00;99389.78;4994324;28;20520;-49
2024/04/03 05:06:14;;;;;;;0.30;0.20;;;;;;;11.03;100.00;99404.25;4993695;28;20516;-49
2024/04/03 05:08:40;;;;;;;0.30;0.20;;;;;;;11.01;100.00;99401.66;4986446;28;20223;-49
2024/04/03 05:11:05;;;;;;;0.30;0.20;;;;;;;11.03;100.00;99398.94;4988979;28;20460;-49
2024/04/03 05:13:34;;;;;;;0.30;0.20;;;;;;;11.05;100.00;99407.69;4994150;28;20684;-49
2024/04/03 05:16:07;;;;;;;0.30;0.20;;;;;;;10.95;100.00;99401.91;4993440;28;20361;-49
2024/04/03 05:18:36;;;;;;;0.30;0.20;;;;;;;11.04;100.00;99405.97;4993971;28;20465;-49
2024/04/03 05:21:02;;;;;;;0.30;0.20;;;;;;;11.12;100.00;99411.81;4993442;28;20494;-50
2024/04/03 05:23:28;;;;;;;0.30;0.20;;;;;;;11.21;100.00;99409.59;4994176;28;20465;-49
2024/04/03 05:25:58;;;;;;;0.30;0.20;;;;;;;11.14;100.00;99409.97;4993947;28;20832;-49
2024/04/03 05:28:25;;;;;;;0.30;0.20;;;;;;;11.20;100.00;99414.97;4993918;28;20497;-49
2024/04/03 05:30:51;;;;;;;0.30;0.20;;;;;;;11.24;100.00;99411.28;4993653;28;20465;-49
2024/04/03 05:33:16;;;;;;;0.30;0.20;;;;;;;11.14;100.00;99412.63;4993756;28;20462;-49
2024/04/03 05:35:42;;;;;;;0.30;0.20;;;;;;;11.09;100.00;99414.59;4993209;28;20552;-49
2024/04/03 05:38:07;;;;;;;0.30;0.20;;;;;;;11.22;100.00;99405.13;4987840;28;20246;-49
2024/04/03 05:40:33;;;;;;;0.30;0.20;;;;;;;11.25;100.00;99389.06;4976873;28;20269;-50
2024/04/03 05:42:58;;;;;;;0.30;0.20;;;;;;;11.46;99.82;99396.03;4993528;28;20651;-49
2024/04/03 05:45:24;;;;;;;0.30;0.20;;;;;;;11.74;98.10;99405.38;4993362;28;20222;-49
2024/04/03 05:47:49;;;;;;;0.30;0.20;;;;;;;11.62;98.48;99400.63;4993372;28;20275;-49
2024/04/03 05:50:15;;;;;;;0.30;0.20;;;;;;;11.62;99.59;99406.81;4993370;28;20725;-49
2024/04/03 05:52:40;;;;;;;0.30;0.20;;;;;;;11.53;100.00;99394.81;4993348;28;20214;-49
2024/04/03 05:55:06;;;;;;;0.30;0.20;;;;;;;11.51;100.00;99396.69;4993383;28;20269;-49
2024/04/03 05:57:31;;;;;;;0.30;0.20;;;;;;;11.43;100.00;99401.50;4993060;28;20235;-50
2024/04/03 05:59:57;;;;;;;0.30;0.20;;;;;;;11.42;100.00;99394.44;4980649;28;20696;-49
2024/04/03 06:02:23;;;;;;;0.30;0.20;;;;;;;11.42;100.00;99405.09;4983135;28;20228;-49
2024/04/03 06:04:48;;;;;;;0.30;0.20;;;;;;;11.33;100.00;99402.00;4992698;28;20254;-49
2024/04/03 06:07:14;;;;;;;0.30;0.20;;;;;;;11.35;100.00;99400.13;4993224;28;20239;-49
2024/04/03 06:09:41;;;;;;;0.30;0.20;;;;;;;11.47;100.00;99410.19;4979905;28;20230;-49
2024/04/03 06:12:07;;;;;;;0.30;0.20;;;;;;;11.40;100.00;99398.13;4993036;28;20672;-49
2024/04/03 06:14:32;;;;;;;0.30;0.20;;;;;;;11.43;100.00;99404.16;4976780;28;20507;-49
2024/04/03 06:16:58;;;;;;;0.30;0.20;;;;;;;11.41;100.00;99397.19;4977021;28;20623;-49
2024/04/03 06:19:23;;;;;;;1.23;1.23;;;;;;;11.49;100.00;99403.00;4976466;28;20592;-49
2024/04/03 06:21:49;;;;;;;0.30;0.20;;;;;;;11.44;100.00;99400.56;4992497;28;20336;-49
2024/04/03 06:24:14;;;;;;;0.30;0.20;;;;;;;11.40;100.00;99400.78;4992573;28;20258;-49
2024/04/03 06:26:40;;;;;;;0.30;0.20;;;;;;;11.39;100.00;99402.59;4992453;28;20249;-49
2024/04/03 06:29:05;;;;;;;0.30;0.20;;;;;;;11.46;100.00;99401.34;4992740;28;20313;-50
2024/04/03 06:31:31;;;;;;;0.30;0.20;;;;;;;11.48;100.00;99402.13;4992933;28;20267;-49
2024/04/03 06:33:59;;;;;;;0.30;0.20;;;;;;;11.60;100.00;99408.69;4992687;28;20214;-48
2024/04/03 06:36:29;;;;;;;0.30;0.20;;;;;;;11.53;100.00;99394.81;4992499;28;20497;-49
2024/04/03 06:38:55;;;;;;;0.30;0.20;;;;;;;11.59;100.00;99396.31;4980500;28;20462;-49
2024/04/03 06:41:20;;;;;;;0.30;0.20;;;;;;;11.64;100.00;99396.94;4982103;28;20521;-49
2024/04/03 06:43:46;;;;;;;0.30;0.20;;;;;;;11.67;100.00;99396.84;4991976;28;20218;-49
2024/04/03 06:46:11;;;;;;;0.30;0.20;;;;;;;11.71;100.00;99402.88;4992194;28;20222;-51
2024/04/03 06:48:38;;;;;;;0.30;0.20;;;;;;;11.77;100.00;99413.22;4992283;28;20317;-49
2024/04/03 06:51:04;;;;;;;0.30;0.20;;;;;;;11.82;100.00;99397.94;4992442;28;20218;-49
2024/04/03 06:53:30;;;;;;;0.30;0.20;;;;;;;11.85;100.00;99408.44;4992047;28;20477;-49
2024/04/03 06:55:57;;;;;;;0.30;0.20;;;;;;;11.85;100.00;99405.75;4992274;28;20265;-49
2024/04/03 06:58:23;;;;;;;0.30;0.20;;;;;;;11.98;100.00;99404.25;4992039;28;20485;-49
2024/04/03 07:00:49;;;;;;;0.30;0.20;;;;;;;11.95;100.00;99415.03;4973392;28;20498;-49
2024/04/03 07:03:18;;;;;;;0.30;0.20;;;;;;;12.05;100.00;99408.31;4988917;28;20473;-50
2024/04/03 07:05:45;;;;;;;0.30;0.20;;;;;;;12.10;100.00;99408.97;4992054;28;20457;-50
2024/04/03 07:08:11;;;;;;;0.30;0.20;;;;;;;12.10;100.00;99403.66;4991779;28;20485;-49
2024/04/03 07:10:37;;;;;;;0.30;0.20;;;;;;;12.09;100.00;99409.91;4991218;28;20458;-49
2024/04/03 07:13:04;;;;;;;0.30;0.20;;;;;;;12.00;100.00;99418.34;4991913;28;20480;-49
2024/04/03 07:15:29;;;;;;;0.30;0.20;;;;;;;11.76;100.00;99417.69;4991999;28;20258;-49
2024/04/03 07:17:55;;;;;;;0.30;0.20;;;;;;;11.80;100.00;99413.13;4991463;28;21060;-49
2024/04/03 07:20:25;;;;;;;0.30;0.20;;;;;;;11.97;100.00;99417.63;4991778;28;20238;-50
2024/04/03 07:22:54;;;;;;;0.30;0.20;;;;;;;12.28;100.00;99406.34;4991575;28;20462;-50
2024/04/03 07:25:20;;;;;;;0.30;0.20;;;;;;;12.33;100.00;99413.16;4991599;28;20967;-50
2024/04/03 07:27:46;;;;;;;0.30;0.20;;;;;;;12.43;98.47;99413.56;4991713;28;20481;-51
2024/04/03 07:30:12;;;;;;;0.30;0.20;;;;;;;12.56;98.02;99413.81;4991919;28;20220;-50
2024/04/03 07:32:37;;;;;;;0.30;0.20;;;;;;;12.61;97.25;99412.66;4991634;28;20269;-49
2024/04/03 07:35:03;;;;;;;0.30;0.20;;;;;;;12.71;96.01;99411.22;4991610;28;20253;-48
2024/04/03 07:37:29;;;;;;;0.30;0.20;;;;;;;12.70;96.40;99412.16;4990826;28;20250;-49
2024/04/03 07:39:55;;;;;;;0.30;0.20;;;;;;;12.68;95.37;99416.72;4956177;28;20463;-49
2024/04/03 07:42:20;;;;;;;0.30;0.20;;;;;;;12.72;94.23;99420.94;4989910;28;20218;-49
2024/04/03 07:44:47;;;;;;;0.30;0.20;;;;;;;12.81;94.12;99413.41;4991671;28;20280;-49
2024/04/03 07:47:12;;;;;;;0.30;0.20;;;;;;;12.63;94.58;99425.91;4991484;28;20377;-49
2024/04/03 07:49:38;;;;;;;0.30;0.20;;;;;;;12.75;94.78;99419.94;4991953;28;20499;-49
2024/04/03 07:52:04;;;;;;;0.30;0.20;;;;;;;12.79;94.30;99429.50;4991448;28;20587;-49
2024/04/03 07:54:29;;;;;;;0.30;0.20;;;;;;;12.60;94.04;99432.22;4991742;28;20727;-50
2024/04/03 07:56:55;;;;;;;0.30;0.20;;;;;;;12.75;94.49;99438.59;4991457;28;20237;-51
2024/04/03 07:59:20;;;;;;;0.30;0.20;;;;;;;12.74;94.70;99427.03;4984823;28;20636;-48
2024/04/03 08:01:46;;;;;;;0.30;0.20;;;;;;;12.70;93.57;99436.16;4976442;28;20320;-49
2024/04/03 08:04:11;;;;;;;0.30;0.20;;;;;;;12.83;92.63;99435.53;4991667;28;20275;-49
2024/04/03 08:06:37;;;;;;;0.30;0.20;;;;;;;12.74;92.20;99434.19;4991178;28;20242;-50
2024/04/03 08:09:02;;;;;;;0.30;0.20;;;;;;;12.50;92.54;99428.31;4980591;28;20271;-49
2024/04/03 08:11:30;;;;;;;0.30;0.20;;;;;;;12.55;92.66;99418.28;4989182;28;20296;-50
2024/04/03 08:13:55;;;;;;;0.30;0.20;;;;;;;12.61;92.25;99433.97;4991216;28;20703;-50
2024/04/03 08:16:21;;;;;;;0.30;0.20;;;;;;;12.70;93.01;99428.16;4991214;28;20464;-50
2024/04/03 08:18:47;;;;;;;0.30;0.20;;;;;;;12.82;91.69;99420.47;4991500;28;20222;-50
2024/04/03 08:21:13;;;;;;;0.30;0.20;;;;;;;13.03;91.62;99424.69;4990943;28;20241;-50
2024/04/03 08:23:38;;;;;;;0.30;0.20;;;;;;;12.87;91.77;99426.41;4994766;28;20470;-50
2024/04/03 08:26:06;;;;;;;0.30;0.20;;;;;;;12.99;90.19;99423.97;4994723;28;20592;-50
2024/04/03 08:28:36;;;;;;;0.30;0.20;;;;;;;13.24;90.37;99417.38;4995063;28;20219;-50
2024/04/03 08:31:02;;;;;;;0.30;0.20;;;;;;;13.02;90.07;99415.84;4994979;28;20461;-50
2024/04/03 08:33:28;;;;;;;0.30;0.20;;;;;;;13.09;90.04;99412.84;4995259;28;20458;-50
2024/04/03 08:36:03;;;;;;;0.30;0.20;;;;;;;13.17;90.07;99416.81;4994807;28;20977;-49
2024/04/03 08:38:29;;;;;;;0.30;0.20;;;;;;;13.43;88.37;99411.91;4986087;28;20226;-50
2024/04/03 08:40:56;;;;;;;0.30;0.20;;;;;;;13.50;87.21;99414.16;4981748;28;20493;-50
2024/04/03 08:43:25;;;;;;;0.30;0.20;;;;;;;13.49;87.67;99416.91;4994738;28;20222;-50
2024/04/03 08:45:53;;;;;;;0.30;0.20;;;;;;;13.54;89.68;99420.19;4994430;28;20476;-50
2024/04/03 08:48:22;;;;;;;0.30;0.20;;;;;;;13.69;88.96;99421.16;4994369;28;20489;-50
2024/04/03 08:50:49;;;;;;;0.30;0.20;;;;;;;13.66;87.33;99413.31;4994406;28;20955;-50
2024/04/03 08:53:23;;;;;;;0.30;0.20;;;;;;;13.77;87.23;99417.13;4993950;28;20811;-50
2024/04/03 08:55:52;;;;;;;0.30;0.20;;;;;;;13.76;87.08;99401.19;4994488;28;20480;-50
2024/04/03 08:58:19;;;;;;;0.30;0.20;;;;;;;13.73;86.94;99390.69;4993750;28;20489;-49
2024/04/03 09:00:45;;;;;;;0.30;0.20;;;;;;;13.55;86.92;99390.72;4975844;28;20490;-49
2024/04/03 09:03:12;;;;;;;0.30;0.20;;;;;;;13.44;87.51;99387.81;4990676;28;20457;-49
2024/04/03 09:05:38;;;;;;;0.30;0.20;;;;;;;13.71;86.20;99380.09;4994155;28;20599;-50
2024/04/03 09:08:06;;;;;;;0.30;0.20;;;;;;;13.90;85.71;99379.91;4990745;28;20831;-49
2024/04/03 09:10:38;;;;;;;0.30;0.20;;;;;;;14.13;83.95;99375.91;4984565;28;20462;-49
2024/04/03 09:13:07;;;;;;;0.30;0.20;;;;;;;14.24;84.31;99373.47;4993996;28;20440;-50
2024/04/03 09:15:34;;;;;;;0.30;0.20;;;;;;;14.50;83.25;99364.81;4993842;28;20439;-50
2024/04/03 09:18:07;;;;;;;0.30;0.20;;;;;;;14.54;80.99;99361.97;4993865;28;20463;-49
2024/04/03 09:20:34;;;;;;;0.30;0.20;;;;;;;14.63;82.23;99367.59;4993574;28;20464;-49
2024/04/03 09:22:59;;;;;;;0.30;0.20;;;;;;;14.94;81.75;99371.09;4993616;28;20451;-50
2024/04/03 09:25:29;;;;;;;0.30;0.20;;;;;;;14.97;80.37;99379.81;4993588;28;20436;-50
2024/04/03 09:28:04;;;;;;;0.30;0.20;;;;;;;14.73;79.86;99376.81;4993626;28;20246;-50
2024/04/03 09:30:30;;;;;;;0.30;0.20;;;;;;;14.69;79.48;99380.63;4993221;28;20465;-50
2024/04/03 09:33:14;;;;;;;0.30;0.20;;;;;;;14.59;80.06;99371.44;4993535;28;20432;-50
2024/04/03 09:35:41;;;;;;;0.30;0.20;;;;;;;14.56;80.88;99373.44;4992959;28;20492;-50
2024/04/03 09:38:10;;;;;;;0.30;0.20;;;;;;;14.69;80.83;99372.59;4987587;28;20469;-50
2024/04/03 09:40:37;;;;;;;0.30;0.20;;;;;;;14.82;79.91;99373.59;4977828;28;21053;-50
2024/04/03 09:43:05;;;;;;;0.30;0.20;;;;;;;14.54;79.84;99370.84;4993824;28;20465;-49
2024/04/03 09:45:31;;;;;;;0.30;0.20;;;;;;;14.66;80.11;99374.56;4993349;28;20465;-49
2024/04/03 09:48:03;;;;;;;0.30;0.20;;;;;;;14.44;80.21;99367.84;4993500;28;20531;-50
2024/04/03 09:50:43;;;;;;;0.30;0.20;;;;;;;14.65;78.38;99372.84;4992930;28;20982;-50
2024/04/03 09:53:22;;;;;;;0.30;0.20;;;;;;;14.49;79.79;99362.22;4993139;28;20465;-50
2024/04/03 09:55:49;;;;;;;0.30;0.20;;;;;;;14.56;80.24;99371.63;4993481;28;20432;-50
2024/04/03 09:58:19;;;;;;;0.30;0.20;;;;;;;14.49;79.40;99373.78;4993032;28;20989;-50
2024/04/03 10:00:52;;;;;;;0.30;0.20;;;;;;;14.40;80.32;99368.09;4975229;28;21007;-50
2024/04/03 10:03:22;;;;;;;0.30;0.20;;;;;;;14.54;79.90;99364.66;4990397;28;20474;-50
2024/04/03 10:05:48;;;;;;;0.30;0.20;;;;;;;14.42;80.09;99369.72;4992830;28;20469;-50
2024/04/03 10:08:17;;;;;;;0.30;0.20;;;;;;;14.28;80.58;99368.81;4988776;28;20545;-50
2024/04/03 10:10:46;;;;;;;0.30;0.20;;;;;;;14.31;80.41;99373.97;4984477;28;20885;-50
2024/04/03 10:13:13;;;;;;;0.30;0.20;;;;;;;14.34;80.97;99377.31;4992669;28;20440;-48
2024/04/03 10:15:40;;;;;;;0.30;0.20;;;;;;;14.61;83.02;99377.53;4992929;28;20861;-49
2024/04/03 10:18:06;;;;;;;0.30;0.20;;;;;;;14.28;86.96;99385.72;4992775;28;20460;-48
2024/04/03 10:20:36;;;;;;;0.30;0.20;;;;;;;14.11;89.45;99384.00;4992916;28;20493;-49
2024/04/03 10:23:09;;;;;;;0.30;0.20;;;;;;;14.18;89.44;99381.84;4992478;28;20683;-49
2024/04/03 10:25:39;;;;;;;0.30;0.20;;;;;;;14.01;89.42;99380.16;4992581;28;20467;-49
2024/04/03 10:28:09;;;;;;;0.30;0.20;;;;;;;14.07;88.08;99385.13;4992797;28;20481;-49
2024/04/03 10:30:35;;;;;;;0.30;0.20;;;;;;;14.15;88.88;99387.38;4992695;28;20462;-49
2024/04/03 10:33:01;;;;;;;0.30;0.20;;;;;;;13.72;89.82;99376.47;4992576;28;20465;-49
2024/04/03 10:35:29;;;;;;;0.30;0.20;;;;;;;13.99;87.40;99374.03;4992408;28;20432;-50
2024/04/03 10:37:58;;;;;;;0.30;0.20;;;;;;;14.14;85.76;99377.66;4988810;28;20487;-49
2024/04/03 10:40:28;;;;;;;0.30;0.20;;;;;;;14.36;84.26;99379.91;4975167;28;21019;-49
2024/04/03 10:42:54;;;;;;;0.30;0.20;;;;;;;14.36;80.53;99378.09;4992676;28;20465;-49
2024/04/03 10:45:19;;;;;;;0.30;0.20;;;;;;;14.44;79.40;99358.97;4992285;28;20947;-49
2024/04/03 10:47:48;;;;;;;0.30;0.20;;;;;;;14.78;78.95;99355.97;4992716;28;20488;-49
2024/04/03 10:50:15;;;;;;;0.30;0.20;;;;;;;14.96;77.50;99354.00;4992413;28;20674;-49
2024/04/03 10:52:41;;;;;;;0.30;0.20;;;;;;;15.16;76.00;99365.28;4992119;28;20947;-50
2024/04/03 10:55:06;;;;;;;0.30;0.20;;;;;;;15.25;74.82;99362.91;4992062;28;20466;-50
2024/04/03 10:57:32;;;;;;;0.30;0.20;;;;;;;15.19;74.42;99359.72;4992292;28;20474;-49
2024/04/03 10:59:57;;;;;;;0.30;0.20;;;;;;;15.02;74.20;99363.47;4980266;28;20221;-49
2024/04/03 11:02:23;;;;;;;0.30;0.20;;;;;;;15.11;75.60;99368.25;4982442;28;20253;-49
2024/04/03 11:04:49;;;;;;;0.30;0.20;;;;;;;15.01;74.18;99367.97;4991944;28;20230;-49
2024/04/03 11:07:15;;;;;;;0.30;0.20;;;;;;;14.97;73.75;99357.53;4991974;28;20242;-49
2024/04/03 11:09:40;;;;;;;0.30;0.20;;;;;;;15.10;74.09;99348.66;4992043;28;20266;-50
2024/04/03 11:12:10;;;;;;;0.30;0.20;;;;;;;15.05;74.88;99349.88;4992217;28;20559;-50
2024/04/03 11:14:36;;;;;;;0.30;0.20;;;;;;;15.10;76.47;99359.38;4992138;28;20276;-50
2024/04/03 11:17:07;;;;;;;0.30;0.20;;;;;;;14.76;77.92;99349.88;4971336;28;20971;-50
2024/04/03 11:19:39;;;;;;;0.30;0.20;;;;;;;14.79;81.75;99352.34;4988025;28;20210;-49
2024/04/03 11:22:05;;;;;;;0.30;0.20;;;;;;;14.80;83.37;99356.78;4991618;28;20472;-49
2024/04/03 11:24:30;;;;;;;0.30;0.20;;;;;;;14.71;82.74;99351.09;4991845;28;21029;-50
2024/04/03 11:26:55;;;;;;;0.30;0.20;;;;;;;14.52;84.15;99362.03;4991909;28;20249;-49
2024/04/03 11:29:30;;;;;;;0.30;0.20;;;;;;;14.34;85.80;99365.78;4991922;28;20214;-49
2024/04/03 11:31:57;;;;;;;0.30;0.20;;;;;;;14.24;88.65;99368.97;4991860;28;20240;-50